createdAt,value
2022-10-31T00:01:39.030Z,100.00
2022-10-31T00:04:07.439Z,100.00
2022-10-31T00:06:34.778Z,100.00
2022-10-31T00:09:05.321Z,100.00
2022-10-31T00:11:32.652Z,100.00
2022-10-31T00:14:00.479Z,100.00
2022-10-31T00:16:29.715Z,100.00
2022-10-31T00:19:03.386Z,100.00
2022-10-31T00:21:32.326Z,100.00
2022-10-31T00:24:00.888Z,100.00
2022-10-31T00:26:30.511Z,100.00
2022-10-31T00:29:00.906Z,100.00
2022-10-31T00:31:28.662Z,100.00
2022-10-31T00:33:56.433Z,100.00
2022-10-31T00:36:23.603Z,100.00
2022-10-31T00:38:50.801Z,100.00
2022-10-31T00:41:19.034Z,100.00
2022-10-31T00:43:46.393Z,100.00
2022-10-31T00:46:14.602Z,100.00
2022-10-31T00:48:43.027Z,100.00
2022-10-31T00:51:10.617Z,100.00
2022-10-31T00:53:37.884Z,100.00
2022-10-31T00:56:06.292Z,100.00
2022-10-31T00:58:33.454Z,100.00
2022-10-31T01:01:00.714Z,100.00
2022-10-31T01:03:32.688Z,100.00
2022-10-31T01:06:05.719Z,100.00
2022-10-31T01:08:35.570Z,100.00
2022-10-31T01:11:12.233Z,100.00
2022-10-31T01:13:42.396Z,100.00
2022-10-31T01:16:17.764Z,100.00
2022-10-31T01:18:45.353Z,100.00
2022-10-31T01:21:18.297Z,100.00
2022-10-31T01:23:46.631Z,100.00
2022-10-31T01:26:25.921Z,100.00
2022-10-31T01:29:02.317Z,100.00
2022-10-31T01:31:37.777Z,100.00
2022-10-31T01:34:07.524Z,100.00
2022-10-31T01:36:38.972Z,100.00
2022-10-31T01:39:14.772Z,100.00
2022-10-31T01:41:52.863Z,100.00
2022-10-31T01:44:19.950Z,100.00
2022-10-31T01:47:15.321Z,100.00
2022-10-31T01:49:59.102Z,100.00
2022-10-31T01:52:50.654Z,100.00
2022-10-31T01:55:36.118Z,100.00
2022-10-31T01:58:14.294Z,100.00
2022-10-31T02:00:47.806Z,100.00
2022-10-31T02:03:15.323Z,100.00
2022-10-31T02:05:44.657Z,100.00
2022-10-31T02:08:41.569Z,100.00
2022-10-31T02:11:09.287Z,100.00
2022-10-31T02:13:38.031Z,100.00
2022-10-31T02:16:10.372Z,100.00
2022-10-31T02:18:37.640Z,100.00
2022-10-31T02:21:28.021Z,100.00
2022-10-31T02:24:21.653Z,100.00
2022-10-31T02:27:31.369Z,100.00
2022-10-31T02:30:46.444Z,100.00
2022-10-31T02:33:43.714Z,100.00
2022-10-31T02:36:12.380Z,100.00
2022-10-31T02:39:24.802Z,100.00
2022-10-31T02:42:20.966Z,100.00
2022-10-31T02:45:11.348Z,100.00
2022-10-31T02:47:39.888Z,100.00
2022-10-31T02:50:25.100Z,100.00
2022-10-31T02:52:53.532Z,100.00
2022-10-31T02:55:26.742Z,100.00
2022-10-31T02:58:11.192Z,100.00
2022-10-31T03:01:29.380Z,100.00
2022-10-31T03:04:23.087Z,100.00
2022-10-31T03:07:40.141Z,100.00
2022-10-31T03:10:47.738Z,100.00
2022-10-31T03:13:44.616Z,100.00
2022-10-31T03:16:51.108Z,100.00
2022-10-31T03:19:34.178Z,100.00
2022-10-31T03:22:25.298Z,100.00
2022-10-31T03:24:55.560Z,100.00
2022-10-31T03:27:28.960Z,100.00
2022-10-31T03:30:02.373Z,100.00
2022-10-31T03:33:00.147Z,100.00
2022-10-31T03:35:31.668Z,100.00
2022-10-31T03:38:06.768Z,100.00
2022-10-31T03:40:38.638Z,100.00
2022-10-31T03:43:15.178Z,100.00
2022-10-31T03:45:47.806Z,100.00
2022-10-31T03:48:18.944Z,100.00
2022-10-31T03:51:12.735Z,100.00
2022-10-31T03:54:30.719Z,100.00
2022-10-31T03:57:27.563Z,100.00
2022-10-31T04:00:16.077Z,100.00
2022-10-31T04:03:32.180Z,100.00
2022-10-31T04:06:07.960Z,100.00
2022-10-31T04:08:52.559Z,100.00
2022-10-31T04:11:26.758Z,100.00
2022-10-31T04:14:13.869Z,100.00
2022-10-31T04:16:44.964Z,100.00
2022-10-31T04:19:14.035Z,100.00
2022-10-31T04:21:44.251Z,100.00
2022-10-31T04:24:12.395Z,100.00
2022-10-31T04:26:40.405Z,100.00
2022-10-31T04:29:08.049Z,100.00
2022-10-31T04:31:35.289Z,100.00
2022-10-31T04:34:03.074Z,100.00
2022-10-31T04:36:30.298Z,100.00
2022-10-31T04:38:58.868Z,100.00
2022-10-31T04:41:40.899Z,100.00
2022-10-31T04:44:17.358Z,100.00
2022-10-31T04:46:48.531Z,100.00
2022-10-31T04:49:15.787Z,100.00
2022-10-31T04:51:43.094Z,100.00
2022-10-31T04:54:10.601Z,100.00
2022-10-31T04:57:09.976Z,100.00
2022-10-31T04:59:38.179Z,100.00
2022-10-31T05:02:05.465Z,100.00
2022-10-31T05:04:43.539Z,100.00
2022-10-31T05:07:10.822Z,100.00
2022-10-31T05:09:38.043Z,100.00
2022-10-31T05:12:05.722Z,100.00
2022-10-31T05:14:51.367Z,100.00
2022-10-31T05:17:38.446Z,100.00
2022-10-31T05:20:29.410Z,100.00
2022-10-31T05:23:15.535Z,100.00
2022-10-31T05:25:43.304Z,100.00
2022-10-31T05:28:10.613Z,100.00
2022-10-31T05:30:38.416Z,100.00
2022-10-31T05:33:09.510Z,100.00
2022-10-31T05:35:55.285Z,100.00
2022-10-31T05:38:25.305Z,100.00
2022-10-31T05:41:01.911Z,100.00
2022-10-31T05:43:31.506Z,100.00
2022-10-31T05:45:58.987Z,100.00
2022-10-31T05:48:44.652Z,100.00
2022-10-31T05:51:38.135Z,100.00
2022-10-31T05:54:05.937Z,100.00
2022-10-31T05:56:33.179Z,100.00
2022-10-31T05:59:01.197Z,100.00
2022-10-31T06:01:28.540Z,100.00
2022-10-31T06:03:57.713Z,100.00
2022-10-31T06:06:25.002Z,100.00
2022-10-31T06:08:53.137Z,100.00
2022-10-31T06:11:23.344Z,100.00
2022-10-31T06:14:03.001Z,100.00
2022-10-31T06:16:44.573Z,100.00
2022-10-31T06:19:31.713Z,100.00
2022-10-31T06:21:59.707Z,100.00
2022-10-31T06:24:26.963Z,100.00
2022-10-31T06:26:54.184Z,100.00
2022-10-31T06:29:22.205Z,100.00
2022-10-31T06:32:02.367Z,100.00
2022-10-31T06:34:31.063Z,100.00
2022-10-31T06:37:00.023Z,100.00
2022-10-31T06:39:28.668Z,100.00
2022-10-31T06:41:55.964Z,100.00
2022-10-31T06:44:24.350Z,100.00
2022-10-31T06:47:14.379Z,100.00
2022-10-31T06:50:06.163Z,100.00
2022-10-31T06:52:33.372Z,100.00
2022-10-31T06:55:00.502Z,100.00
2022-10-31T06:57:28.870Z,100.00
2022-10-31T06:59:56.750Z,100.00
2022-10-31T07:02:42.262Z,100.00
2022-10-31T07:05:09.541Z,100.00
2022-10-31T07:07:37.313Z,100.00
2022-10-31T07:10:05.208Z,100.00
2022-10-31T07:13:07.410Z,100.00
2022-10-31T07:15:40.218Z,100.00
2022-10-31T07:18:11.236Z,100.00
2022-10-31T07:20:38.908Z,100.00
2022-10-31T07:23:06.525Z,100.00
2022-10-31T07:25:34.156Z,100.00
2022-10-31T07:28:01.888Z,100.00
2022-10-31T07:30:29.504Z,100.00
2022-10-31T07:32:57.837Z,100.00
2022-10-31T07:35:36.206Z,100.00
2022-10-31T07:38:15.220Z,100.00
2022-10-31T07:40:43.853Z,100.00
2022-10-31T07:43:14.811Z,100.00
2022-10-31T07:46:02.538Z,100.00
2022-10-31T07:48:48.097Z,100.00
2022-10-31T07:51:34.048Z,100.00
2022-10-31T07:54:16.183Z,100.00
2022-10-31T07:56:43.371Z,100.00
2022-10-31T07:59:10.675Z,100.00
2022-10-31T08:01:37.883Z,100.00
2022-10-31T08:04:40.314Z,100.00
2022-10-31T08:07:39.633Z,100.00
2022-10-31T08:10:13.975Z,100.00
2022-10-31T08:12:41.508Z,100.00
2022-10-31T08:15:10.180Z,100.00
2022-10-31T08:17:38.961Z,100.00
2022-10-31T08:20:07.351Z,100.00
2022-10-31T08:22:43.823Z,100.00
2022-10-31T08:25:11.723Z,100.00
2022-10-31T08:27:39.824Z,100.00
2022-10-31T08:30:09.883Z,100.00
2022-10-31T08:32:39.798Z,100.00
2022-10-31T08:35:39.502Z,100.00
2022-10-31T08:38:38.823Z,100.00
2022-10-31T08:41:09.576Z,100.00
2022-10-31T08:43:37.707Z,100.00
2022-10-31T08:46:05.269Z,100.00
2022-10-31T08:48:33.278Z,100.00
2022-10-31T08:51:02.013Z,100.00
2022-10-31T08:53:30.414Z,100.00
2022-10-31T08:56:15.792Z,100.00
2022-10-31T08:58:42.976Z,100.00
2022-10-31T09:01:11.316Z,100.00
2022-10-31T09:03:38.611Z,100.00
2022-10-31T09:06:09.697Z,100.00
2022-10-31T09:08:38.192Z,100.00
2022-10-31T09:11:07.455Z,100.00
2022-10-31T09:14:10.209Z,100.00
2022-10-31T09:16:40.280Z,100.00
2022-10-31T09:19:13.696Z,100.00
2022-10-31T09:21:45.615Z,100.00
2022-10-31T09:24:12.933Z,100.00
2022-10-31T09:26:42.487Z,100.00
2022-10-31T09:29:24.555Z,100.00
2022-10-31T09:31:57.744Z,100.00
2022-10-31T09:34:33.878Z,100.00
2022-10-31T09:37:06.116Z,100.00
2022-10-31T09:39:35.784Z,100.00
2022-10-31T09:42:51.088Z,100.00
2022-10-31T09:45:45.248Z,100.00
2022-10-31T09:49:14.111Z,100.00
2022-10-31T09:52:25.138Z,100.00
2022-10-31T09:55:06.030Z,100.00
2022-10-31T09:57:38.086Z,100.00
2022-10-31T10:00:11.145Z,100.00
2022-10-31T10:03:00.068Z,100.00
2022-10-31T10:05:45.040Z,100.00
2022-10-31T10:08:26.659Z,100.00
2022-10-31T10:11:56.179Z,100.00
2022-10-31T10:14:58.078Z,100.00
2022-10-31T10:17:52.755Z,100.00
2022-10-31T10:20:35.787Z,100.00
2022-10-31T10:23:37.703Z,100.00
2022-10-31T10:27:00.663Z,100.00
2022-10-31T10:29:59.325Z,100.00
2022-10-31T10:32:32.581Z,100.00
2022-10-31T10:35:36.270Z,100.00
2022-10-31T10:38:36.703Z,100.00
2022-10-31T10:41:12.997Z,100.00
2022-10-31T10:43:40.656Z,100.00
2022-10-31T10:47:08.916Z,100.00
2022-10-31T10:49:54.300Z,100.00
2022-10-31T10:52:53.837Z,100.00
2022-10-31T10:55:56.416Z,100.00
2022-10-31T10:58:23.927Z,100.00
2022-10-31T11:00:54.423Z,100.00
2022-10-31T11:03:21.859Z,100.00
2022-10-31T11:06:02.089Z,100.00
2022-10-31T11:08:32.508Z,100.00
2022-10-31T11:11:17.818Z,100.00
2022-10-31T11:13:51.370Z,100.00
2022-10-31T11:16:35.532Z,100.00
2022-10-31T11:19:13.074Z,100.00
2022-10-31T11:21:40.295Z,100.00
2022-10-31T11:24:10.375Z,100.00
2022-10-31T11:26:40.486Z,100.00
2022-10-31T11:29:26.806Z,95.29
2022-10-31T11:32:00.955Z,100.00
2022-10-31T11:34:35.895Z,100.00
2022-10-31T11:37:28.162Z,98.23
2022-10-31T11:40:00.247Z,100.00
2022-10-31T11:42:37.098Z,95.79
2022-10-31T11:45:23.843Z,93.92
2022-10-31T11:47:59.192Z,90.45
2022-10-31T11:50:43.424Z,89.59
2022-10-31T11:53:56.725Z,90.04
2022-10-31T11:56:27.813Z,83.34
2022-10-31T11:59:06.822Z,83.36
2022-10-31T12:01:34.541Z,85.29
2022-10-31T12:04:10.934Z,86.05
2022-10-31T12:06:43.036Z,88.37
2022-10-31T12:09:34.648Z,90.33
2022-10-31T12:12:30.962Z,90.21
2022-10-31T12:15:34.338Z,88.65
2022-10-31T12:18:33.799Z,90.13
2022-10-31T12:22:14.324Z,85.72
2022-10-31T12:25:52.257Z,91.50
2022-10-31T12:28:45.415Z,87.81
2022-10-31T12:31:55.115Z,94.39
2022-10-31T12:34:49.965Z,94.24
2022-10-31T12:38:04.343Z,91.50
2022-10-31T12:41:08.947Z,90.22
2022-10-31T12:43:58.507Z,92.23
2022-10-31T12:46:37.561Z,89.07
2022-10-31T12:49:40.032Z,90.74
2022-10-31T12:52:54.380Z,86.42
2022-10-31T12:56:02.055Z,87.45
2022-10-31T12:58:46.725Z,86.30
2022-10-31T13:01:27.578Z,87.22
2022-10-31T13:04:17.988Z,86.47
2022-10-31T13:07:11.293Z,81.83
2022-10-31T13:10:03.763Z,80.78
2022-10-31T13:12:37.374Z,79.40
2022-10-31T13:15:28.978Z,79.49
2022-10-31T13:18:03.079Z,80.41
2022-10-31T13:20:41.395Z,84.53
2022-10-31T13:23:50.383Z,88.18
2022-10-31T13:26:46.374Z,80.22
2022-10-31T13:29:56.868Z,78.56
2022-10-31T13:32:25.670Z,80.42
2022-10-31T13:34:59.180Z,76.88
2022-10-31T13:37:42.690Z,80.49
2022-10-31T13:40:43.722Z,77.86
2022-10-31T13:43:34.332Z,77.93
2022-10-31T13:46:01.643Z,74.76
2022-10-31T13:48:28.771Z,73.99
2022-10-31T13:51:05.393Z,73.18
2022-10-31T13:53:43.047Z,74.79
2022-10-31T13:56:25.490Z,76.80
2022-10-31T13:59:10.737Z,71.70
2022-10-31T14:01:47.459Z,72.05
2022-10-31T14:04:25.857Z,74.56
2022-10-31T14:07:17.298Z,70.20
2022-10-31T14:10:06.276Z,70.79
2022-10-31T14:12:42.207Z,70.90
2022-10-31T14:15:24.794Z,68.34
2022-10-31T14:18:01.864Z,70.48
2022-10-31T14:20:45.025Z,69.87
2022-10-31T14:23:38.547Z,69.63
2022-10-31T14:26:26.639Z,68.19
2022-10-31T14:29:20.821Z,70.14
2022-10-31T14:32:27.611Z,67.85
2022-10-31T14:34:58.827Z,64.88
2022-10-31T14:38:11.944Z,59.03
2022-10-31T14:40:58.703Z,57.12
2022-10-31T14:44:15.248Z,54.59
2022-10-31T14:46:57.044Z,57.82
2022-10-31T14:49:35.155Z,60.08
2022-10-31T14:52:06.943Z,63.79
2022-10-31T14:54:42.150Z,68.05
2022-10-31T14:57:20.407Z,71.30
2022-10-31T15:00:00.787Z,73.69
2022-10-31T15:02:57.108Z,69.47
2022-10-31T15:05:27.133Z,63.73
2022-10-31T15:07:58.625Z,60.21
2022-10-31T15:10:33.133Z,58.24
2022-10-31T15:13:24.865Z,56.53
2022-10-31T15:15:56.444Z,57.82
2022-10-31T15:18:28.609Z,58.23
2022-10-31T15:20:57.778Z,60.08
2022-10-31T15:23:30.034Z,59.15
2022-10-31T15:26:06.532Z,57.43
2022-10-31T15:28:33.794Z,60.56
2022-10-31T15:31:03.963Z,65.03
2022-10-31T15:33:47.886Z,66.51
2022-10-31T15:36:27.152Z,68.84
2022-10-31T15:38:59.803Z,68.72
2022-10-31T15:41:54.831Z,72.00
2022-10-31T15:44:43.272Z,79.06
2022-10-31T15:47:27.176Z,83.39
2022-10-31T15:50:00.081Z,91.38
2022-10-31T15:52:34.195Z,96.10
2022-10-31T15:55:11.706Z,96.94
2022-10-31T15:57:54.053Z,99.34
2022-10-31T16:00:38.363Z,100.00
2022-10-31T16:03:31.655Z,100.00
2022-10-31T16:06:06.641Z,100.00
2022-10-31T16:08:37.042Z,100.00
2022-10-31T16:11:13.607Z,100.00
2022-10-31T16:14:29.019Z,100.00
2022-10-31T16:16:59.538Z,100.00
2022-10-31T16:19:48.493Z,100.00
2022-10-31T16:22:28.475Z,100.00
2022-10-31T16:25:30.370Z,100.00
2022-10-31T16:28:16.151Z,100.00
2022-10-31T16:30:50.168Z,100.00
2022-10-31T16:33:37.125Z,100.00
2022-10-31T16:36:35.246Z,100.00
2022-10-31T16:39:04.094Z,100.00
2022-10-31T16:41:32.972Z,100.00
2022-10-31T16:44:03.374Z,100.00
2022-10-31T16:46:30.541Z,100.00
2022-10-31T16:48:58.660Z,100.00
2022-10-31T16:51:25.906Z,100.00
2022-10-31T16:53:54.299Z,100.00
2022-10-31T16:56:34.018Z,100.00
2022-10-31T16:59:05.449Z,100.00
2022-10-31T17:01:33.748Z,100.00
2022-10-31T17:04:00.981Z,100.00
2022-10-31T17:06:28.518Z,100.00
2022-10-31T17:08:55.782Z,100.00
2022-10-31T17:11:26.124Z,100.00
2022-10-31T17:13:54.923Z,100.00
2022-10-31T17:16:22.173Z,100.00
2022-10-31T17:18:49.443Z,100.00
2022-10-31T17:21:26.275Z,100.00
2022-10-31T17:23:53.818Z,100.00
2022-10-31T17:26:21.437Z,100.00
2022-10-31T17:28:49.231Z,100.00
2022-10-31T17:31:31.439Z,100.00
2022-10-31T17:34:02.725Z,100.00
2022-10-31T17:36:33.528Z,100.00
2022-10-31T17:39:00.959Z,100.00
2022-10-31T17:41:28.123Z,100.00
2022-10-31T17:43:59.581Z,100.00
2022-10-31T17:46:28.285Z,100.00
2022-10-31T17:48:55.634Z,100.00
2022-10-31T17:51:23.019Z,100.00
2022-10-31T17:53:50.301Z,100.00
2022-10-31T17:56:17.489Z,100.00
2022-10-31T17:58:44.715Z,100.00
2022-10-31T18:01:16.303Z,100.00
2022-10-31T18:03:44.495Z,100.00
2022-10-31T18:06:14.481Z,100.00
2022-10-31T18:08:42.361Z,100.00
2022-10-31T18:11:21.990Z,100.00
2022-10-31T18:13:56.790Z,100.00
2022-10-31T18:16:25.391Z,100.00
2022-10-31T18:18:58.520Z,100.00
2022-10-31T18:21:25.998Z,100.00
2022-10-31T18:24:00.654Z,100.00
2022-10-31T18:26:29.227Z,100.00
2022-10-31T18:28:56.524Z,100.00
2022-10-31T18:31:24.492Z,100.00
2022-10-31T18:33:56.425Z,100.00
2022-10-31T18:36:24.639Z,100.00
2022-10-31T18:38:51.915Z,100.00
2022-10-31T18:41:19.614Z,100.00
2022-10-31T18:43:46.824Z,100.00
2022-10-31T18:46:17.997Z,100.00
2022-10-31T18:48:45.764Z,100.00
2022-10-31T18:51:14.670Z,100.00
2022-10-31T18:53:41.981Z,100.00
2022-10-31T18:56:11.140Z,100.00
2022-10-31T18:58:38.288Z,100.00
2022-10-31T19:01:13.224Z,100.00
2022-10-31T19:03:41.357Z,100.00
2022-10-31T19:06:10.126Z,100.00
2022-10-31T19:08:39.629Z,100.00
2022-10-31T19:11:13.939Z,100.00
2022-10-31T19:13:43.782Z,100.00
2022-10-31T19:16:16.458Z,100.00
2022-10-31T19:18:44.844Z,100.00
2022-10-31T19:21:17.300Z,100.00
2022-10-31T19:23:45.536Z,100.00
2022-10-31T19:26:13.886Z,100.00
2022-10-31T19:28:42.013Z,100.00
2022-10-31T19:31:10.419Z,100.00
2022-10-31T19:33:37.864Z,100.00
2022-10-31T19:36:15.492Z,100.00
2022-10-31T19:38:47.328Z,100.00
2022-10-31T19:41:26.048Z,100.00
2022-10-31T19:43:54.437Z,100.00
2022-10-31T19:46:40.355Z,100.00
2022-10-31T19:49:11.932Z,100.00
2022-10-31T19:51:39.182Z,100.00
2022-10-31T19:54:06.903Z,100.00
2022-10-31T19:56:34.073Z,100.00
2022-10-31T19:59:02.652Z,100.00
2022-10-31T20:01:30.394Z,100.00
2022-10-31T20:03:57.734Z,100.00
2022-10-31T20:06:28.280Z,100.00
2022-10-31T20:08:56.491Z,100.00
2022-10-31T20:11:26.798Z,100.00
2022-10-31T20:13:58.956Z,100.00
2022-10-31T20:16:28.120Z,100.00
2022-10-31T20:18:56.401Z,100.00
2022-10-31T20:21:28.526Z,100.00
2022-10-31T20:24:02.534Z,100.00
2022-10-31T20:26:32.100Z,100.00
2022-10-31T20:29:01.896Z,100.00
2022-10-31T20:31:36.396Z,100.00
2022-10-31T20:34:04.318Z,100.00
2022-10-31T20:36:31.659Z,100.00
2022-10-31T20:39:00.170Z,100.00
2022-10-31T20:41:27.391Z,100.00
2022-10-31T20:43:55.041Z,100.00
2022-10-31T20:46:26.384Z,100.00
2022-10-31T20:48:54.669Z,100.00
2022-10-31T20:51:28.696Z,100.00
2022-10-31T20:53:59.890Z,100.00
2022-10-31T20:56:28.622Z,100.00
2022-10-31T20:58:57.411Z,100.00
2022-10-31T21:01:29.628Z,100.00
2022-10-31T21:03:58.663Z,100.00
2022-10-31T21:06:26.789Z,100.00
2022-10-31T21:08:54.602Z,100.00
2022-10-31T21:11:25.509Z,100.00
2022-10-31T21:13:53.617Z,100.00
2022-10-31T21:16:25.893Z,100.00
2022-10-31T21:18:55.430Z,100.00
2022-10-31T21:21:36.056Z,100.00
2022-10-31T21:24:10.416Z,100.00
2022-10-31T21:26:42.689Z,100.00
2022-10-31T21:29:11.976Z,100.00
2022-10-31T21:31:40.441Z,100.00
2022-10-31T21:34:08.098Z,100.00
2022-10-31T21:36:36.109Z,100.00
2022-10-31T21:39:06.633Z,100.00
2022-10-31T21:41:34.101Z,100.00
2022-10-31T21:44:01.975Z,100.00
2022-10-31T21:46:33.997Z,100.00
2022-10-31T21:49:03.957Z,100.00
2022-10-31T21:51:35.359Z,100.00
2022-10-31T21:54:22.247Z,100.00
2022-10-31T21:56:49.528Z,100.00
2022-10-31T21:59:16.877Z,100.00
2022-10-31T22:01:44.263Z,100.00
2022-10-31T22:04:11.547Z,100.00
2022-10-31T22:06:38.898Z,100.00
2022-10-31T22:09:10.152Z,100.00
2022-10-31T22:11:37.511Z,100.00
2022-10-31T22:14:05.089Z,100.00
2022-10-31T22:16:36.608Z,100.00
2022-10-31T22:19:06.129Z,100.00
2022-10-31T22:21:47.297Z,100.00
2022-10-31T22:24:16.493Z,100.00
2022-10-31T22:26:44.113Z,100.00
2022-10-31T22:29:15.753Z,100.00
2022-10-31T22:31:53.485Z,100.00
2022-10-31T22:34:24.692Z,100.00
2022-10-31T22:36:54.257Z,100.00
2022-10-31T22:39:21.500Z,100.00
2022-10-31T22:41:48.630Z,100.00
2022-10-31T22:44:15.761Z,100.00
2022-10-31T22:46:42.935Z,100.00
2022-10-31T22:49:15.158Z,100.00
2022-10-31T22:51:43.777Z,100.00
2022-10-31T22:54:17.816Z,100.00
2022-10-31T22:56:46.172Z,100.00
2022-10-31T22:59:15.946Z,100.00
2022-10-31T23:01:47.194Z,100.00
2022-10-31T23:04:16.482Z,100.00
2022-10-31T23:06:44.292Z,100.00
2022-10-31T23:09:16.433Z,100.00
2022-10-31T23:11:44.503Z,100.00
2022-10-31T23:14:20.514Z,100.00
2022-10-31T23:16:56.063Z,100.00
2022-10-31T23:19:30.456Z,100.00
2022-10-31T23:22:03.968Z,100.00
2022-10-31T23:24:44.641Z,100.00
2022-10-31T23:27:17.450Z,100.00
2022-10-31T23:29:56.399Z,100.00
2022-10-31T23:32:35.054Z,100.00
2022-10-31T23:35:10.374Z,100.00
2022-10-31T23:37:39.139Z,100.00
2022-10-31T23:40:10.600Z,100.00
2022-10-31T23:42:38.471Z,100.00
2022-10-31T23:45:06.396Z,100.00
2022-10-31T23:47:33.782Z,100.00
2022-10-31T23:50:00.899Z,100.00
2022-10-31T23:52:28.221Z,100.00
2022-10-31T23:54:55.389Z,100.00
2022-10-31T23:57:22.522Z,100.00
2022-10-31T23:59:49.647Z,100.00
